Flight Track Log - Related Links

Times and Time Zones

All times are in EDT time to prevent confusion due to time zone crossing. See the AAL991 flight status page for this flight to view local times or setup timezone preferences in your user account.

Time Position Orientation Groundspeed Altitude Reporting Facility
EDT Latitude Longitude Course Direction KTS MPH feet Rate Location/Type
Sun 12:10:28 AM 25.7900 -80.2830 90° East 160 184  Level FlightAware ADS-B
Sun 12:10:47 AM 25.7900 -80.2670 90° East 184 212 400 1,750 Climbing FlightAware ADS-B
Sun 12:11:16 AM 25.7910 -80.2470 87° East 189 217 1,400 2,000 Climbing FlightAware ADS-B
Sun 12:11:38 AM 25.7840 -80.2190 106° East 212 244 2,100 1,688 Climbing FlightAware ADS-B
Sun 12:11:48 AM 25.7770 -80.2090 128° Southeast 231 266 2,300 2,364 Climbing FlightAware ADS-B
Sun 12:12:11 AM 25.7610 -80.1850 127° Southeast 234 269 3,400 2,182 Climbing FlightAware ADS-B
Sun 12:12:32 AM 25.7520 -80.1630 114° Southeast 261 300 3,900 1,286 Climbing FlightAware ADS-B
Sun 12:12:39 AM 25.7500 -80.1560 108° East 263 303 4,000 2,842 Climbing FlightAware ADS-B
Sun 12:12:51 AM 25.7460 -80.1350 102° East 265 305 4,800 3,000 Climbing FlightAware ADS-B
Sun 12:13:09 AM 25.7420 -80.1150 103° East 265 305 5,500 2,743 Climbing FlightAware ADS-B
Sun 12:13:26 AM 25.7360 -80.0890 104° East 273 314 6,400 2,757 Climbing FlightAware ADS-B
Sun 12:13:46 AM 25.7300 -80.0620 104° East 276 318 7,200 2,286 Climbing FlightAware ADS-B
Sun 12:14:08 AM 25.7230 -80.0360 107° East 281 323 8,000 2,739 Climbing FlightAware ADS-B
Sun 12:14:32 AM 25.7130 -79.9950 105° East 289 333 9,300 2,667 Climbing FlightAware ADS-B
Sun 12:14:44 AM 25.7100 -79.9830 106° East 291 335 9,600 1,714 Climbing FlightAware ADS-B
Sun 12:15:21 AM 25.6950 -79.9210 105° East 322 371 10,700 1,588 Climbing FlightAware ADS-B
Sun 12:15:52 AM 25.6830 -79.8710 105° East 352 405 11,400 1,273 Climbing FlightAware ADS-B
Sun 12:16:27 AM 25.6670 -79.8060 105° East 384 442 12,100 1,775 Climbing FlightAware ADS-B
Sun 12:17:03 AM 25.6510 -79.7390 105° East 394 453 13,500 2,384 Climbing FlightAware ADS-B
Sun 12:17:40 AM 25.6320 -79.6630 105° East 405 466 15,000 2,197 Climbing FlightAware ADS-B
Sun 12:18:14 AM 25.6160 -79.5990 105° East 414 476 16,100 2,057 Climbing FlightAware ADS-B
Sun 12:18:50 AM 25.5970 -79.5210 105° East 425 489 17,400 2,229 Climbing FlightAware ADS-B
Sun 12:19:24 AM 25.5790 -79.4470 105° East 432 497 18,700 2,143 Climbing FlightAware ADS-B
Sun 12:20:00 AM 25.5600 -79.3720 106° East 439 505 19,900 1,816 Climbing FlightAware ADS-B
Sun 12:20:40 AM 25.5410 -79.2930 105° East 445 512 21,000 1,899 Climbing FlightAware ADS-B
Sun 12:21:19 AM 25.5180 -79.1990 105° East 452 520 22,400 1,917 Climbing FlightAware ADS-B
Sun 12:21:52 AM 25.4910 -79.1260 112° Southeast 455 524 23,300 1,612 Climbing FlightAware ADS-B
Sun 12:22:26 AM 25.4610 -79.0620 117° Southeast 459 528 24,200 1,750 Climbing FlightAware ADS-B
Sun 12:23:04 AM 25.4190 -78.9780 119° Southeast 462 532 25,400 1,680 Climbing FlightAware ADS-B
Sun 12:23:41 AM 25.3810 -78.9020 119° Southeast 466 536 26,300 1,437 Climbing FlightAware ADS-B
Sun 12:24:15 AM 25.3460 -78.8320 119° Southeast 472 543 27,100 818 Climbing FlightAware ADS-B
Sun 12:24:47 AM 25.3170 -78.7750 119° Southeast 473 544 27,200 87 Climbing FlightAware ADS-B
Sun 12:25:24 AM 25.2840 -78.7090 119° Southeast 473 544 27,200 2,160 Level FlightAware ADS-B
Sun 12:26:02 AM 25.2320 -78.6060 119° Southeast 471 542 29,900 2,203 Climbing FlightAware ADS-B
Sun 12:26:43 AM 25.1970 -78.5370 119° Southeast 471 542 30,100 930 Climbing FlightAware ADS-B
Sun 12:27:13 AM 25.1560 -78.4580 120° Southeast 479 551 31,000 831 Climbing FlightAware ADS-B
Sun 12:27:48 AM 25.1170 -78.3810 119° Southeast 479 551 31,000  Level FlightAware ADS-B
Sun 12:28:30 AM 25.0770 -78.3010 119° Southeast 477 549 31,000  Level FlightAware ADS-B
Sun 12:29:23 AM 25.0240 -78.1940 119° Southeast 473 544 31,000  Level FlightAware ADS-B
Sun 12:29:58 AM 24.9930 -78.1310 118° Southeast 473 544 31,000  Level FlightAware ADS-B
Sun 12:30:38 AM 24.9580 -78.0580 118° Southeast 473 544 31,000  Level FlightAware ADS-B
Sun 12:31:17 AM 24.9240 -77.9880 118° Southeast 473 544 31,000  Level FlightAware ADS-B
Sun 12:31:53 AM 24.8930 -77.9220 117° Southeast 473 544 31,000  Level FlightAware ADS-B
Sun 12:32:32 AM 24.8580 -77.8520 119° Southeast 473 544 31,000  Level FlightAware ADS-B
Sun 12:33:09 AM 24.8260 -77.7850 118° Southeast 473 544 31,000  Level FlightAware ADS-B
Sun 12:33:45 AM 24.7950 -77.7200 118° Southeast 473 544 31,000  Level FlightAware ADS-B
Sun 12:34:10 AM 24.7730 -77.6750 118° Southeast 473 544 31,000  Level FlightAware ADS-B
Sun 12:34:58 AM 24.7310 -77.5880 118° Southeast 473 544 31,000  Level FlightAware ADS-B
Sun 12:35:38 AM 24.6960 -77.5150 118° Southeast 473 544 31,000  Level FlightAware ADS-B
Sun 12:36:17 AM 24.6620 -77.4450 118° Southeast 473 544 31,000  Level FlightAware ADS-B
Sun 12:36:53 AM 24.6310 -77.3800 118° Southeast 473 544 31,000  Level FlightAware ADS-B
Sun 12:37:29 AM 24.5990 -77.3150 118° Southeast 473 544 31,000  Level FlightAware ADS-B
Sun 12:38:10 AM 24.5630 -77.2410 118° Southeast 473 544 31,000  Level FlightAware ADS-B
Sun 12:38:46 AM 24.5320 -77.1760 118° Southeast 473 544 31,000  Level FlightAware ADS-B
Sun 12:40:02 AM 23.9794 -77.2206 118° Southeast 472 543 31,000  Level Miami Center
Sun 12:41:04 AM 23.9044 -77.0997 124° Southeast 477 549 31,000 650 Level Miami Center
Sun 12:42:02 AM 23.8231 -76.9953 130° Southeast 472 543 32,300 992 Climbing Miami Center
Sun 12:43:05 AM 23.7394 -76.8839 129° Southeast 467 537 33,000 350 Climbing Miami Center
Sun 12:44:02 AM 23.6581 -76.7703 128° Southeast 467 537 33,000  Level Miami Center
Sun 12:45:04 AM 23.5786 -76.6572 127° Southeast 467 537 33,000  Level Miami Center
Sun 12:46:04 AM 23.4989 -76.5417 127° Southeast 467 537 33,000  Level Miami Center
Sun 12:47:04 AM 23.4192 -76.4286 128° Southeast 467 537 33,000  Level Miami Center
Sun 12:48:05 AM 23.3372 -76.3181 129° Southeast 467 537 33,000  Level Miami Center
Sun 12:49:02 AM 23.2533 -76.2031 128° Southeast 472 543 33,000  Level Miami Center
Sun 12:50:02 AM 23.1711 -76.0906 128° Southeast 472 543 33,000  Level Miami Center
Sun 12:51:04 AM 23.0911 -75.9758 127° Southeast 472 543 33,000  Level Miami Center
Sun 12:52:02 AM 23.0278 -75.8475 118° Southeast 477 549 33,000  Level Miami Center
Sun 12:53:04 AM 22.9683 -75.7194 117° Southeast 477 549 33,000  Level Miami Center
Sun 12:54:02 AM 22.9106 -75.5733 113° Southeast 477 549 33,000  Level Miami Center
Sun 12:55:03 AM 22.8531 -75.4433 116° Southeast 477 549 33,000  Level Miami Center
Sun 12:56:04 AM 22.7975 -75.3153 115° Southeast 477 549 33,000  Level Miami Center
Sun 12:57:02 AM 22.7417 -75.1831 115° Southeast 477 549 33,000  Level Miami Center
Sun 12:58:02 AM 22.6858 -75.0533 115° Southeast 477 549 33,000  Level Miami Center
Sun 12:59:02 AM 22.6281 -74.9236 116° Southeast 477 549 33,000  Level Miami Center
Sun 01:00:02 AM 22.5719 -74.7939 115° Southeast 477 549 33,000  Level Miami Center
Sun 01:01:02 AM 22.5136 -74.6667 116° Southeast 477 549 33,000  Level Miami Center
Sun 01:02:02 AM 22.4703 -74.5642 115° Southeast 472 543 33,000  Level Miami Center
Sun 01:03:02 AM 22.4097 -74.4258 115° Southeast 466 536 33,000  Level Miami Center
Sun 01:04:02 AM 22.3533 -74.2989 116° Southeast 466 536 33,000  Level Miami Center
Sun 01:05:03 AM 22.2928 -74.1722 117° Southeast 466 536 33,000  Level Miami Center
Sun 01:06:04 AM 22.2403 -74.0411 113° Southeast 466 536 33,000  Level Miami Center
Sun 01:07:02 AM 22.1836 -73.9144 116° Southeast 466 536 33,000  Level Miami Center
Sun 01:08:02 AM 22.1267 -73.7878 116° Southeast 466 536 33,000  Level Miami Center
Sun 01:09:02 AM 22.0697 -73.6617 116° Southeast 466 536 33,000  Level Miami Center
Sun 01:10:02 AM 22.0169 -73.5353 114° Southeast 461 531 33,000  Level Miami Center
Sun 01:11:02 AM 21.9600 -73.4092 116° Southeast 461 531 33,000  Level Miami Center
Sun 01:12:02 AM 21.9028 -73.2853 116° Southeast 461 531 33,000  Level Miami Center
Sun 01:13:05 AM 21.8411 -73.1483 116° Southeast 461 531 33,000  Level Miami Center
Sun 01:14:02 AM 21.7836 -73.0247 117° Southeast 461 531 33,000  Level Miami Center
Sun 01:15:03 AM 21.7283 -72.8989 115° Southeast 461 531 33,000  Level Miami Center
Sun 01:16:02 AM 21.6708 -72.7733 116° Southeast 461 531 33,000  Level Miami Center
Sun 01:17:02 AM 21.6150 -72.6478 116° Southeast 461 531 33,000  Level Miami Center
Sun 01:18:02 AM 21.5553 -72.5225 117° Southeast 461 531 33,000  Level Miami Center
Sun 01:19:02 AM 21.4994 -72.3994 116° Southeast 461 531 33,000  Level Miami Center
Sun 01:20:02 AM 21.4436 -72.2722 115° Southeast 461 531 33,000  Level Miami Center
Sun 01:21:02 AM 21.4106 -72.1397 105° East 461 531 33,000  Level Miami Center
Sun 01:22:04 AM 21.3875 -72.0069 101° East 455 524 33,000  Level Miami Center
Sun 01:23:03 AM 21.3500 -71.8744 107° East 455 524 33,000  Level Miami Center
Sun 01:24:04 AM 21.2814 -71.7569 122° Southeast 455 524 33,000  Level Miami Center
Sun 01:25:03 AM 21.2131 -71.6506 125° Southeast 464 534 33,000  Level Miami Center
Sun 01:26:05 AM 21.1486 -71.5328 120° Southeast 470 541 33,000  Level Miami Center
Sun 01:27:03 AM 21.0858 -71.4108 119° Southeast 465 535 33,000  Level Miami Center
Sun 01:28:02 AM 21.0253 -71.2867 118° Southeast 459 528 33,000  Level Miami Center
Sun 01:29:03 AM 20.9686 -71.1647 116° Southeast 459 528 33,000  Level Miami Center
Sun 01:30:02 AM 20.9078 -71.0408 118° Southeast 465 535 33,000  Level Miami Center
Sun 01:31:02 AM 20.8489 -70.9169 117° Southeast 465 535 33,000  Level Miami Center
Sun 01:32:05 AM 20.7856 -70.7933 119° Southeast 465 535 33,000  Level Miami Center
Sun 01:33:02 AM 20.7264 -70.6697 117° Southeast 465 535 33,000  Level Miami Center
Sun 01:34:03 AM 20.6672 -70.5461 117° Southeast 465 535 33,000  Level Miami Center
Sun 01:35:02 AM 20.6058 -70.4206 118° Southeast 465 535 33,000  Level Miami Center
Sun 01:36:02 AM 20.5425 -70.2975 119° Southeast 465 535 33,000  Level Miami Center
Sun 01:41:46 AM 20.1550 -69.5780 119° Southeast 478 550 33,000  Level FlightAware ADS-B
Sun 01:42:30 AM 20.1090 -69.4870 118° Southeast 477 549 33,000  Level FlightAware ADS-B
Sun 01:43:10 AM 20.0740 -69.4170 118° Southeast 477 549 33,000  Level FlightAware ADS-B
Sun 01:43:31 AM 20.0450 -69.3610 119° Southeast 474 545 33,000  Level FlightAware ADS-B
Sun 01:44:14 AM 20.0050 -69.2830 119° Southeast 472 543 33,000  Level FlightAware ADS-B
Sun 01:45:01 AM 19.9530 -69.1790 118° Southeast 470 541 33,000  Level FlightAware ADS-B
Sun 01:45:38 AM 19.9140 -69.1020 118° Southeast 469 540 33,000  Level FlightAware ADS-B
Sun 01:46:09 AM 19.8830 -69.0420 119° Southeast 469 540 33,000  Level FlightAware ADS-B
Sun 01:46:41 AM 19.8530 -68.9700 114° Southeast 472 543 33,000  Level FlightAware ADS-B
Sun 01:47:17 AM 19.8320 -68.8910 106° East 472 543 33,000  Level FlightAware ADS-B
Sun 01:47:53 AM 19.8110 -68.8100 105° East 473 544 33,000  Level FlightAware ADS-B
Sun 01:48:30 AM 19.7900 -68.7340 106° East 474 545 33,000  Level FlightAware ADS-B
Sun 01:49:02 AM 19.7710 -68.6640 106° East 473 544 33,000  Level FlightAware ADS-B
Sun 01:49:40 AM 19.7460 -68.5740 106° East 470 541 33,000  Level FlightAware ADS-B
Sun 01:50:10 AM 19.7290 -68.5140 107° East 469 540 33,000  Level FlightAware ADS-B
Sun 01:50:49 AM 19.7020 -68.4210 107° East 468 539 33,000  Level FlightAware ADS-B
Sun 01:51:24 AM 19.6770 -68.3470 110° East 465 535 33,000  Level FlightAware ADS-B
Sun 01:51:57 AM 19.6420 -68.2880 122° Southeast 462 532 33,000  Level FlightAware ADS-B
Sun 01:52:35 AM 19.5780 -68.2240 137° Southeast 462 532 33,000  Level FlightAware ADS-B
Sun 01:53:11 AM 19.5210 -68.1710 139° Southeast 463 533 33,000  Level FlightAware ADS-B
Sun 01:53:42 AM 19.4690 -68.1240 140° Southeast 464 534 33,000  Level FlightAware ADS-B
Sun 01:54:17 AM 19.4130 -68.0730 139° Southeast 465 535 33,000  Level FlightAware ADS-B
Sun 01:54:56 AM 19.3480 -68.0130 139° Southeast 465 535 33,000  Level FlightAware ADS-B
Sun 01:55:27 AM 19.2980 -67.9680 140° Southeast 465 535 33,000  Level FlightAware ADS-B
Sun 01:56:04 AM 19.2370 -67.9120 139° Southeast 465 535 33,000  Level FlightAware ADS-B
Sun 01:56:37 AM 19.1850 -67.8640 139° Southeast 465 535 33,000  Level FlightAware ADS-B
Sun 01:57:16 AM 19.1230 -67.8080 140° Southeast 462 532 33,000  Level FlightAware ADS-B
Sun 01:57:42 AM 19.0820 -67.7700 139° Southeast 462 532 33,000  Level FlightAware ADS-B
Sun 01:58:14 AM 19.0260 -67.7190 139° Southeast 462 532 33,000  Level FlightAware ADS-B
Sun 01:58:54 AM 18.9610 -67.6590 139° Southeast 462 532 33,000  Level FlightAware ADS-B
Sun 01:59:31 AM 18.9040 -67.6060 139° Southeast 462 532 33,000  Level FlightAware ADS-B
Sun 02:00:07 AM 18.8440 -67.5510 139° Southeast 463 533 33,000  Level FlightAware ADS-B
Sun 02:00:37 AM 18.7960 -67.5080 140° Southeast 465 535 33,000  Level FlightAware ADS-B
Sun 02:01:12 AM 18.7380 -67.4550 139° Southeast 465 535 33,000  Level FlightAware ADS-B
Sun 02:01:52 AM 18.6760 -67.3980 139° Southeast 464 534 33,000  Level FlightAware ADS-B
Sun 02:02:21 AM 18.6330 -67.3590 139° Southeast 464 534 33,000  Level FlightAware ADS-B
Sun 02:02:58 AM 18.5650 -67.2960 139° Southeast 465 535 33,000  Level FlightAware ADS-B
Sun 02:03:35 AM 18.5060 -67.2420 139° Southeast 465 535 33,000  Level FlightAware ADS-B
Sun 02:04:06 AM 18.4580 -67.1980 139° Southeast 467 537 33,000  Level FlightAware ADS-B
Sun 02:04:45 AM 18.3920 -67.1380 139° Southeast 468 539 33,000  Level FlightAware ADS-B
Sun 02:05:22 AM 18.3300 -67.0810 139° Southeast 469 540 33,000  Level FlightAware ADS-B
Sun 02:05:57 AM 18.2740 -67.0290 139° Southeast 469 540 33,000  Level FlightAware ADS-B
Sun 02:06:27 AM 18.2250 -66.9840 139° Southeast 469 540 33,000  Level FlightAware ADS-B
Sun 02:07:00 AM 18.1700 -66.9340 139° Southeast 469 540 33,000  Level FlightAware ADS-B
Sun 02:07:41 AM 18.1040 -66.8730 139° Southeast 469 540 33,000  Level FlightAware ADS-B
Sun 02:08:15 AM 18.0480 -66.8220 139° Southeast 470 541 33,000  Level FlightAware ADS-B
Sun 02:08:46 AM 17.9950 -66.7740 139° Southeast 470 541 33,000  Level FlightAware ADS-B
Sun 02:09:23 AM 17.9400 -66.7240 139° Southeast 471 542 33,000  Level FlightAware ADS-B
Sun 02:10:00 AM 17.8740 -66.6630 139° Southeast 471 542 33,000  Level FlightAware ADS-B
Sun 02:10:34 AM 17.8180 -66.6120 139° Southeast 472 543 33,000  Level FlightAware ADS-B
Sun 02:11:07 AM 17.7640 -66.5630 139° Southeast 472 543 33,000  Level FlightAware ADS-B
Sun 02:11:31 AM 17.7270 -66.5290 139° Southeast 473 544 33,000  Level FlightAware ADS-B
Sun 02:12:16 AM 17.6490 -66.4590 139° Southeast 474 545 33,000  Level FlightAware ADS-B
Sun 02:12:55 AM 17.5840 -66.4000 139° Southeast 474 545 33,000  Level FlightAware ADS-B
Sun 02:13:31 AM 17.5250 -66.3470 139° Southeast 474 545 33,000  Level FlightAware ADS-B
Sun 02:14:06 AM 17.4750 -66.3010 139° Southeast 474 545 33,000  Level FlightAware ADS-B
Sun 02:14:36 AM 17.4170 -66.2480 139° Southeast 474 545 33,000  Level FlightAware ADS-B
Sun 02:15:14 AM 17.3580 -66.1950 139° Southeast 475 547 33,000  Level FlightAware ADS-B
Sun 02:15:52 AM 17.2900 -66.1350 140° Southeast 477 549 33,000  Level FlightAware ADS-B
Sun 02:16:27 AM 17.2450 -66.0940 139° Southeast 477 549 33,000  Level FlightAware ADS-B
Sun 02:16:56 AM 17.1810 -66.0370 140° Southeast 478 550 33,000  Level FlightAware ADS-B
Sun 02:17:31 AM 17.1260 -65.9870 139° Southeast 478 550 33,000  Level FlightAware ADS-B
Sun 02:18:07 AM 17.0670 -65.9350 140° Southeast 477 549 33,000  Level FlightAware ADS-B
Sun 02:18:44 AM 17.0000 -65.8750 139° Southeast 475 547 33,000  Level FlightAware ADS-B
Sun 02:19:19 AM 16.9460 -65.8260 139° Southeast 475 547 33,000  Level FlightAware ADS-B
Sun 02:20:02 AM 16.8770 -65.7640 139° Southeast 475 547 33,000  Level FlightAware ADS-B
Sun 02:20:33 AM 16.8220 -65.7170 141° Southeast 471 542 33,000  Level FlightAware ADS-B
Sun 02:21:17 AM 16.7460 -65.6480 139° Southeast 470 541 33,000  Level FlightAware ADS-B
Sun 02:22:01 AM 16.6770 -65.5870 140° Southeast 469 540 33,000  Level FlightAware ADS-B
Sun 02:22:34 AM 16.6210 -65.5380 140° Southeast 468 539 33,000  Level FlightAware ADS-B
Sun 02:23:03 AM 16.5700 -65.4930 140° Southeast 466 536 33,000  Level FlightAware ADS-B
Sun 02:23:42 AM 16.5070 -65.4350 139° Southeast 466 536 33,000  Level FlightAware ADS-B
Sun 02:24:33 AM 16.4530 -65.3580 126° Southeast 470 541 33,000  Level FlightAware ADS-B
Sun 02:25:12 AM 16.4120 -65.2970 125° Southeast 470 541 33,000  Level FlightAware ADS-B
Sun 02:25:46 AM 16.3760 -65.2430 125° Southeast 470 541 33,000 808 Level FlightAware ADS-B
Sun 02:26:04 AM 16.2790 -65.2220 168° South 467 537 33,700 1,636 Climbing FlightAware ADS-B
Sun 02:26:41 AM 16.2160 -65.1770 146° Southeast 465 535 34,500 640 Climbing FlightAware ADS-B
Sun 02:27:19 AM 16.1600 -65.1340 144° Southeast 465 535 34,500  Level FlightAware ADS-B
Sun 02:27:56 AM 16.1060 -65.0910 143° Southeast 465 535 34,500  Level FlightAware ADS-B
Sun 02:28:33 AM 16.0520 -65.0490 143° Southeast 465 535 34,500  Level FlightAware ADS-B
Sun 02:29:17 AM 15.9880 -64.9980 143° Southeast 465 535 34,500  Level FlightAware ADS-B
Sun 02:29:53 AM 15.9350 -64.9570 143° Southeast 465 535 34,500  Level FlightAware ADS-B
Sun 02:30:28 AM 15.8840 -64.9170 143° Southeast 465 535 34,500  Level FlightAware ADS-B
Sun 02:31:08 AM 15.8260 -64.8710 143° Southeast 465 535 34,500  Level FlightAware ADS-B
Sun 02:31:48 AM 15.7670 -64.8260 144° Southeast 465 535 34,500  Level FlightAware ADS-B
Sun 02:32:27 AM 15.7110 -64.7810 142° Southeast 465 535 34,500  Level FlightAware ADS-B
Sun 02:33:04 AM 15.6560 -64.7390 144° Southeast 465 535 34,500  Level FlightAware ADS-B
Sun 02:33:41 AM 15.6020 -64.6970 143° Southeast 465 535 34,500  Level FlightAware ADS-B
Sun 02:34:18 AM 15.5480 -64.6540 143° Southeast 465 535 34,500  Level FlightAware ADS-B
Sun 02:34:57 AM 15.4910 -64.6100 143° Southeast 465 535 34,500  Level FlightAware ADS-B
Sun 02:35:32 AM 15.4400 -64.5700 143° Southeast 465 535 34,500  Level FlightAware ADS-B
Sun 02:36:07 AM 15.3890 -64.5300 143° Southeast 465 535 34,500 19 Level FlightAware ADS-B
Sun 02:41:00 AM 14.9281 -64.0894 149° Southeast  Level FlightAware Approximate
Sun 02:42:00 AM 14.8171 -64.0218 149° Southeast  Level FlightAware Approximate
Sun 02:43:00 AM 14.7061 -63.9541 149° Southeast  Level FlightAware Approximate
Sun 02:44:00 AM 14.5950 -63.8866 150° Southeast  Level FlightAware Approximate
Sun 02:45:00 AM 14.4839 -63.8191 150° Southeast  Level FlightAware Approximate
Sun 02:46:00 AM 14.3729 -63.7517 150° Southeast  Level FlightAware Approximate
Sun 02:47:00 AM 14.2618 -63.6843 150° Southeast  Level FlightAware Approximate
Sun 02:48:00 AM 14.1506 -63.6171 150° Southeast  Level FlightAware Approximate
Sun 02:49:00 AM 14.0399 -63.5491 149° Southeast  Level FlightAware Approximate
Sun 02:50:00 AM 13.9291 -63.4812 149° Southeast  Level FlightAware Approximate
Sun 02:51:00 AM 13.8184 -63.4134 149° Southeast  Level FlightAware Approximate
Sun 02:52:00 AM 13.7076 -63.3457 149° Southeast  Level FlightAware Approximate
Sun 02:53:00 AM 13.5968 -63.2780 149° Southeast  Level FlightAware Approximate
Sun 02:54:00 AM 13.4860 -63.2104 149° Southeast  Level FlightAware Approximate
Sun 02:55:00 AM 13.3751 -63.1428 149° Southeast  Level FlightAware Approximate
Sun 02:56:00 AM 13.2643 -63.0754 149° Southeast  Level FlightAware Approximate
Sun 02:57:00 AM 13.1536 -63.0076 149° Southeast  Level FlightAware Approximate
Sun 02:58:00 AM 13.0429 -62.9398 149° Southeast  Level FlightAware Approximate
Sun 02:59:00 AM 12.9323 -62.8721 149° Southeast  Level FlightAware Approximate
Sun 03:00:00 AM 12.8216 -62.8044 149° Southeast  Level FlightAware Approximate
Sun 03:01:00 AM 12.7108 -62.7369 149° Southeast  Level FlightAware Approximate
Sun 03:01:47 AM 12.5350 -62.4200 149° Southeast 475 547 35,000  Level FlightAware ADS-B
Sun 03:02:27 AM 12.4670 -62.3640 141° Southeast 475 547 35,000  Level FlightAware ADS-B
Sun 03:03:03 AM 12.4150 -62.3210 141° Southeast 475 547 35,000  Level FlightAware ADS-B
Sun 03:03:33 AM 12.3530 -62.2710 142° Southeast 473 544 35,000  Level FlightAware ADS-B
Sun 03:04:21 AM 12.2710 -62.2040 141° Southeast 473 544 35,000  Level FlightAware ADS-B
Sun 03:04:57 AM 12.2160 -62.1590 141° Southeast 471 542 35,000  Level FlightAware ADS-B
Sun 03:05:33 AM 12.1480 -62.1040 142° Southeast 470 541 35,000  Level FlightAware ADS-B
Sun 03:06:11 AM 12.0840 -62.0520 142° Southeast 470 541 35,000  Level FlightAware ADS-B
Sun 03:06:40 AM 12.0430 -62.0180 141° Southeast 469 540 35,000  Level FlightAware ADS-B
Sun 03:07:18 AM 11.9700 -61.9590 142° Southeast 468 539 35,000  Level FlightAware ADS-B
Sun 03:07:51 AM 11.9130 -61.9130 142° Southeast 469 540 35,000  Level FlightAware ADS-B
Sun 03:08:27 AM 11.8530 -61.8630 141° Southeast 470 541 35,000  Level FlightAware ADS-B
Sun 03:09:11 AM 11.7770 -61.8010 141° Southeast 472 543 35,000  Level FlightAware ADS-B
Sun 03:09:45 AM 11.7200 -61.7540 141° Southeast 472 543 35,000  Level FlightAware ADS-B
Sun 03:10:17 AM 11.6750 -61.7170 141° Southeast 473 544 35,000  Level FlightAware ADS-B
Sun 03:10:51 AM 11.6070 -61.6620 142° Southeast 472 543 35,000  Level FlightAware ADS-B
Sun 03:11:37 AM 11.5490 -61.6150 142° Southeast 472 543 35,000  Level FlightAware ADS-B
Sun 03:12:13 AM 11.4670 -61.5470 141° Southeast 472 543 35,000  Level FlightAware ADS-B
Sun 03:12:49 AM 11.4050 -61.4960 141° Southeast 469 540 35,000  Level FlightAware ADS-B
Sun 03:13:23 AM 11.3520 -61.4530 141° Southeast 468 539 35,000  Level FlightAware ADS-B
Sun 03:13:55 AM 11.2930 -61.4050 141° Southeast 466 536 35,000  Level FlightAware ADS-B
Sun 03:14:33 AM 11.2300 -61.3530 141° Southeast 464 534 35,000  Level FlightAware ADS-B
Sun 03:15:10 AM 11.1700 -61.3040 141° Southeast 462 532 35,000  Level FlightAware ADS-B
Sun 03:15:43 AM 11.1140 -61.2570 141° Southeast 461 531 35,000  Level FlightAware ADS-B
Sun 03:16:15 AM 11.0610 -61.2140 141° Southeast 459 528 35,000  Level FlightAware ADS-B
Sun 03:16:49 AM 11.0080 -61.1700 141° Southeast 457 526 35,000  Level FlightAware ADS-B
Sun 03:17:31 AM 10.9380 -61.1130 141° Southeast 455 524 35,000  Level FlightAware ADS-B
Sun 03:18:03 AM 10.8840 -61.0680 141° Southeast 455 524 35,000  Level FlightAware ADS-B
Sun 03:18:41 AM 10.8200 -61.0160 141° Southeast 456 525 35,000  Level FlightAware ADS-B
Sun 03:19:13 AM 10.7670 -60.9720 141° Southeast 455 524 35,000  Level FlightAware ADS-B
Sun 03:19:46 AM 10.7150 -60.9290 141° Southeast 456 525 35,000  Level FlightAware ADS-B
Sun 03:20:21 AM 10.6560 -60.8800 141° Southeast 456 525 35,000  Level FlightAware ADS-B
Sun 03:20:57 AM 10.5980 -60.8320 141° Southeast 456 525 35,000  Level FlightAware ADS-B
Sun 03:21:29 AM 10.5450 -60.7880 141° Southeast 456 525 35,000  Level FlightAware ADS-B
Sun 03:22:04 AM 10.4890 -60.7420 141° Southeast 456 525 35,000  Level FlightAware ADS-B
Sun 03:22:41 AM 10.4270 -60.6910 141° Southeast 456 525 35,000  Level FlightAware ADS-B
Sun 03:23:11 AM 10.3770 -60.6500 141° Southeast 456 525 35,000  Level FlightAware ADS-B
Sun 03:23:51 AM 10.3250 -60.6070 141° Southeast 456 525 35,000  Level FlightAware ADS-B
Sun 03:24:37 AM 10.2360 -60.5330 141° Southeast 456 525 35,000  Level FlightAware ADS-B
Sun 03:25:09 AM 10.1830 -60.4900 141° Southeast 457 526 35,000  Level FlightAware ADS-B
Sun 03:25:47 AM 10.1220 -60.4380 140° Southeast 457 526 35,000  Level FlightAware ADS-B
Sun 03:26:21 AM 10.0660 -60.3930 142° Southeast 459 528 35,000  Level FlightAware ADS-B
Sun 03:26:55 AM 10.0090 -60.3450 140° Southeast 459 528 35,000  Level FlightAware ADS-B
Sun 03:27:31 AM 9.9490 -60.2960 141° Southeast 459 528 35,000  Level FlightAware ADS-B
Sun 03:28:01 AM 9.9010 -60.2560 141° Southeast 459 528 35,000  Level FlightAware ADS-B
Sun 03:28:43 AM 9.8320 -60.1980 140° Southeast 459 528 35,000  Level FlightAware ADS-B
Sun 03:29:17 AM 9.7750 -60.1520 142° Southeast 459 528 35,000  Level FlightAware ADS-B
Sun 03:29:53 AM 9.7150 -60.1010 140° Southeast 460 529 35,000  Level FlightAware ADS-B
Sun 03:30:25 AM 9.6630 -60.0590 141° Southeast 459 528 35,000  Level FlightAware ADS-B
Sun 03:31:02 AM 9.6030 -60.0090 141° Southeast 458 527 35,000  Level FlightAware ADS-B
Sun 03:31:33 AM 9.5510 -59.9660 141° Southeast 458 527 35,000  Level FlightAware ADS-B
Sun 03:32:07 AM 9.5040 -59.9270 141° Southeast 458 527 35,000  Level FlightAware ADS-B
Sun 03:32:47 AM 9.4300 -59.8660 141° Southeast 457 526 35,000  Level FlightAware ADS-B
Sun 03:33:23 AM 9.3700 -59.8160 141° Southeast 458 527 35,000  Level FlightAware ADS-B
Sun 03:33:57 AM 9.3150 -59.7710 141° Southeast 459 528 35,000  Level FlightAware ADS-B
Sun 03:34:31 AM 9.2580 -59.7240 141° Southeast 460 529 35,000  Level FlightAware ADS-B
Sun 03:35:03 AM 9.2050 -59.6800 141° Southeast 460 529 35,000  Level FlightAware ADS-B
Sun 03:35:49 AM 9.1300 -59.6180 141° Southeast 461 531 35,000  Level FlightAware ADS-B
Sun 03:36:25 AM 9.0680 -59.5670 141° Southeast 462 532 35,000  Level FlightAware ADS-B
Sun 03:36:45 AM 9.0350 -59.5430 144° Southeast 464 534 35,000  Level FlightAware ADS-B
Sun 03:37:19 AM 8.9690 -59.5090 153° Southeast 466 536 35,000  Level FlightAware ADS-B
Sun 03:37:51 AM 8.9070 -59.4770 153° Southeast 467 537 35,000  Level FlightAware ADS-B
Sun 03:38:27 AM 8.8380 -59.4430 154° Southeast 468 539 35,000  Level FlightAware ADS-B
Sun 03:39:03 AM 8.7660 -59.4090 155° Southeast 468 539 35,000  Level FlightAware ADS-B
Sun 03:39:36 AM 8.7030 -59.3770 153° Southeast 470 541 35,000  Level FlightAware ADS-B
Sun 03:40:14 AM 8.6270 -59.3410 155° Southeast 470 541 35,000  Level FlightAware ADS-B
Sun 03:40:48 AM 8.5600 -59.3080 154° Southeast 470 541 35,000  Level FlightAware ADS-B
Sun 03:41:26 AM 8.4850 -59.2720 155° Southeast 470 541 35,000  Level FlightAware ADS-B
Sun 03:42:00 AM 8.4190 -59.2400 154° Southeast 471 542 35,000  Level FlightAware ADS-B
Sun 03:42:46 AM 8.3370 -59.2000 154° Southeast 471 542 35,000  Level FlightAware ADS-B
Sun 03:43:16 AM 8.2850 -59.1750 155° Southeast 471 542 35,000  Level FlightAware ADS-B
Sun 03:43:56 AM 8.2180 -59.1420 154° Southeast 471 542 35,000  Level FlightAware ADS-B
Sun 03:44:31 AM 8.1600 -59.1140 154° Southeast 471 542 35,000  Level FlightAware ADS-B
Sun 03:45:13 AM 8.0900 -59.0790 154° Southeast 471 542 35,000  Level FlightAware ADS-B
Sun 03:45:50 AM 8.0290 -59.0490 154° Southeast 471 542 35,000  Level FlightAware ADS-B
Sun 03:46:30 AM 7.9620 -59.0160 154° Southeast 471 542 35,000  Level FlightAware ADS-B
Sun 03:47:06 AM 7.9020 -58.9870 154° Southeast 471 542 35,000  Level FlightAware ADS-B
Sun 03:47:42 AM 7.8420 -58.9570 154° Southeast 471 542 35,000  Level FlightAware ADS-B
Sun 03:48:16 AM 7.7850 -58.9290 154° Southeast 471 542 35,000  Level FlightAware ADS-B
Sun 03:48:53 AM 7.7240 -58.8990 154° Southeast 471 542 35,000  Level FlightAware ADS-B
Sun 03:49:29 AM 7.6640 -58.8690 154° Southeast 471 542 35,000  Level FlightAware ADS-B
Sun 03:50:06 AM 7.6020 -58.8390 154° Southeast 471 542 35,000  Level FlightAware ADS-B
Sun 03:50:47 AM 7.5340 -58.8060 154° Southeast 471 542 35,000  Level FlightAware ADS-B
Sun 03:51:21 AM 7.4770 -58.7780 154° Southeast 471 542 35,000  Level FlightAware ADS-B
Sun 03:52:00 AM 7.4130 -58.7460 154° Southeast 471 542 35,000  Level FlightAware ADS-B
Sun 03:52:38 AM 7.3490 -58.7150 154° Southeast 471 542 35,000  Level FlightAware ADS-B
Sun 03:55:00 AM 7.0799 -58.5704 152° Southeast  Level Estimated
Sun 03:56:00 AM 6.9661 -58.5094 152° Southeast  Level Estimated
Sun 03:57:00 AM 6.8524 -58.4484 152° Southeast  Level Estimated
Sun 03:58:00 AM 6.7386 -58.3875 152° Southeast  Level Estimated
Sun 03:59:00 AM 6.6249 -58.3265 152° Southeast  Level Estimated
Sun 04:00:00 AM 6.5111 -58.2656 152° Southeast  Level Estimated
Sun 04:01:00 AM 6.3974 -58.2047 152° Southeast  Level Estimated
Sun 04:02:00 AM 6.2836 -58.1439 152° Southeast  Level Estimated
Sun 04:03:00 AM 6.1698 -58.0830 152° Southeast  Level Estimated
Sun 04:04:00 AM 6.0560 -58.0222 152° Southeast  Level Estimated
Sun 04:05:00 AM 5.9422 -57.9614 152° Southeast  Level Estimated
Sun 04:06:00 AM 5.8284 -57.9007 152° Southeast  Level Estimated
Sun 04:07:00 AM 5.7146 -57.8400 152° Southeast  Level Estimated
Sun 04:08:00 AM 5.6008 -57.7793 152° Southeast  Level Estimated
Sun 04:09:00 AM 5.4870 -57.7186 152° Southeast  Level Estimated
Sun 04:10:00 AM 5.3731 -57.6579 152° Southeast  Level Estimated
Sun 04:11:00 AM 5.2593 -57.5973 152° Southeast  Level Estimated
Sun 04:12:00 AM 5.1455 -57.5367 152° Southeast  Level Estimated
Sun 04:13:00 AM 5.0312 -57.4759 152° Southeast  Level Estimated
Sun 04:14:00 AM 4.9170 -57.4151 152° Southeast  Level Estimated
Sun 04:15:00 AM 4.8027 -57.3544 152° Southeast  Level Estimated
Sun 04:16:00 AM 4.6885 -57.2936 152° Southeast  Level Estimated
Sun 04:17:00 AM 4.5742 -57.2329 152° Southeast  Level Estimated
Sun 04:18:00 AM 4.4599 -57.1722 152° Southeast  Level Estimated
Sun 04:19:00 AM 4.3457 -57.1115 152° Southeast  Level Estimated
Sun 04:20:00 AM 4.2314 -57.0508 152° Southeast  Level Estimated
Sun 04:21:00 AM 4.1171 -56.9902 152° Southeast  Level Estimated
Sun 04:22:00 AM 4.0028 -56.9296 152° Southeast  Level Estimated
Sun 04:23:00 AM 3.8885 -56.8690 152° Southeast  Level Estimated
Sun 04:24:00 AM 3.7743 -56.8084 152° Southeast  Level Estimated
Sun 04:25:00 AM 3.6600 -56.7478 152° Southeast  Level Estimated
Sun 04:26:00 AM 3.5457 -56.6872 152° Southeast  Level Estimated
Sun 04:27:00 AM 3.4313 -56.6267 152° Southeast  Level Estimated
Sun 04:28:00 AM 3.3170 -56.5662 152° Southeast  Level Estimated
Sun 04:29:00 AM 3.2027 -56.5057 152° Southeast  Level Estimated
Sun 04:30:00 AM 3.0884 -56.4452 152° Southeast  Level Estimated
Sun 04:31:00 AM 2.9741 -56.3847 152° Southeast  Level Estimated
Sun 04:32:00 AM 2.8598 -56.3242 152° Southeast  Level Estimated
Sun 04:33:00 AM 2.7454 -56.2637 152° Southeast  Level Estimated
Sun 04:34:00 AM 2.6311 -56.2033 152° Southeast  Level Estimated
Sun 04:35:00 AM 2.5168 -56.1428 152° Southeast  Level Estimated
Sun 04:36:00 AM 2.4024 -56.0824 152° Southeast  Level Estimated
Sun 04:37:00 AM 2.2881 -56.0220 152° Southeast  Level Estimated
Sun 04:38:00 AM 2.1737 -55.9616 152° Southeast  Level Estimated
Sun 04:39:00 AM 2.0594 -55.9012 152° Southeast  Level Estimated
Sun 04:40:00 AM 1.9451 -55.8408 152° Southeast  Level Estimated
Sun 04:41:00 AM 1.8307 -55.7804 152° Southeast  Level Estimated
Sun 04:42:00 AM 1.7164 -55.7200 152° Southeast  Level Estimated
Sun 04:43:00 AM 1.6020 -55.6596 152° Southeast  Level Estimated
Sun 04:44:00 AM 1.4877 -55.5993 152° Southeast  Level Estimated
Sun 04:45:00 AM 1.3733 -55.5389 152° Southeast  Level Estimated
Sun 04:46:00 AM 1.2589 -55.4786 152° Southeast  Level Estimated
Sun 04:47:00 AM 1.1446 -55.4182 152° Southeast  Level Estimated
Sun 04:48:00 AM 1.0302 -55.3579 152° Southeast  Level Estimated
Sun 04:49:00 AM 0.9159 -55.2975 152° Southeast  Level Estimated
Sun 04:50:00 AM 0.8015 -55.2372 152° Southeast  Level Estimated
Sun 04:51:00 AM 0.6871 -55.1769 152° Southeast  Level Estimated
Sun 04:52:00 AM 0.5728 -55.1166 152° Southeast  Level Estimated
Sun 04:53:00 AM 0.4584 -55.0562 152° Southeast  Level Estimated
Sun 04:54:00 AM 0.3441 -54.9959 152° Southeast  Level Estimated
Sun 04:55:00 AM 0.2297 -54.9356 152° Southeast  Level Estimated
Sun 04:56:00 AM 0.1153 -54.8753 152° Southeast  Level Estimated
Sun 04:57:00 AM 0.0010 -54.8149 152° Southeast  Level Estimated
Sun 04:58:00 AM -0.1134 -54.7546 152° Southeast  Level Estimated
Sun 04:59:00 AM -0.2278 -54.6943 152° Southeast  Level Estimated
Sun 05:00:00 AM -0.3422 -54.6340 152° Southeast  Level Estimated
Sun 05:01:00 AM -0.4565 -54.5737 152° Southeast  Level Estimated
Sun 05:02:00 AM -0.5709 -54.5133 152° Southeast  Level Estimated
Sun 05:03:00 AM -0.6852 -54.4530 152° Southeast  Level Estimated
Sun 05:04:00 AM -0.7996 -54.3927 152° Southeast  Level Estimated
Sun 05:05:00 AM -0.9140 -54.3323 152° Southeast  Level Estimated
Sun 05:06:00 AM -1.0283 -54.2720 152° Southeast  Level Estimated
Sun 05:07:00 AM -1.1427 -54.2117 152° Southeast  Level Estimated
Sun 05:08:00 AM -1.2570 -54.1513 152° Southeast  Level Estimated
Sun 05:09:00 AM -1.3714 -54.0910 152° Southeast  Level Estimated
Sun 05:10:00 AM -1.4858 -54.0306 152° Southeast  Level Estimated
Sun 05:11:00 AM -1.6001 -53.9702 152° Southeast  Level Estimated
Sun 05:12:00 AM -1.7145 -53.9099 152° Southeast  Level Estimated
Sun 05:13:00 AM -1.8288 -53.8495 152° Southeast  Level Estimated
Sun 05:14:00 AM -1.9432 -53.7891 152° Southeast  Level Estimated
Sun 05:15:00 AM -2.0575 -53.7287 152° Southeast  Level Estimated
Sun 05:16:00 AM -2.1718 -53.6683 152° Southeast  Level Estimated
Sun 05:17:00 AM -2.2862 -53.6079 152° Southeast  Level Estimated
Sun 05:18:00 AM -2.4005 -53.5475 152° Southeast  Level Estimated
Sun 05:19:00 AM -2.5149 -53.4870 152° Southeast  Level Estimated
Sun 05:20:00 AM -2.6292 -53.4266 152° Southeast  Level Estimated
Sun 05:21:00 AM -2.7435 -53.3662 152° Southeast  Level Estimated
Sun 05:22:00 AM -2.8579 -53.3057 152° Southeast  Level Estimated
Sun 05:23:00 AM -2.9722 -53.2452 152° Southeast  Level Estimated
Sun 05:24:00 AM -3.0865 -53.1847 152° Southeast  Level Estimated
Sun 05:25:00 AM -3.2008 -53.1242 152° Southeast  Level Estimated
Sun 05:26:00 AM -3.3151 -53.0637 152° Southeast  Level Estimated
Sun 05:27:00 AM -3.4294 -53.0032 152° Southeast  Level Estimated
Sun 05:28:00 AM -3.5438 -52.9426 152° Southeast  Level Estimated
Sun 05:29:00 AM -3.6581 -52.8821 152° Southeast  Level Estimated
Sun 05:30:00 AM -3.7724 -52.8215 152° Southeast  Level Estimated
Sun 05:31:00 AM -3.8866 -52.7609 152° Southeast  Level Estimated
Sun 05:32:00 AM -4.0009 -52.7003 152° Southeast  Level Estimated
Sun 05:33:00 AM -4.1152 -52.6397 152° Southeast  Level Estimated
Sun 05:34:00 AM -4.2295 -52.5790 152° Southeast  Level Estimated
Sun 05:35:00 AM -4.3438 -52.5184 152° Southeast  Level Estimated
Sun 05:36:00 AM -4.4580 -52.4577 152° Southeast  Level Estimated
Sun 05:37:00 AM -4.5723 -52.3970 152° Southeast  Level Estimated
Sun 05:38:00 AM -4.6866 -52.3363 152° Southeast  Level Estimated
Sun 05:39:00 AM -4.8008 -52.2755 152° Southeast  Level Estimated
Sun 05:40:00 AM -4.9151 -52.2148 152° Southeast  Level Estimated
Sun 05:41:00 AM -5.0293 -52.1540 152° Southeast  Level Estimated
Sun 05:42:00 AM -5.1436 -52.0932 152° Southeast  Level Estimated
Sun 05:43:00 AM -5.2578 -52.0324 152° Southeast  Level Estimated
Sun 05:44:00 AM -5.3720 -51.9715 152° Southeast  Level Estimated
Sun 05:45:00 AM -5.4862 -51.9107 152° Southeast  Level Estimated
Sun 05:46:00 AM -5.6005 -51.8498 152° Southeast  Level Estimated
Sun 05:47:00 AM -5.7147 -51.7889 152° Southeast  Level Estimated
Sun 05:48:00 AM -5.8289 -51.7279 152° Southeast  Level Estimated
Sun 05:49:00 AM -5.9431 -51.6670 152° Southeast  Level Estimated
Sun 05:50:00 AM -6.0573 -51.6060 152° Southeast  Level Estimated
Sun 05:51:00 AM -6.1715 -51.5450 152° Southeast  Level Estimated
Sun 05:52:00 AM -6.2856 -51.4839 152° Southeast  Level Estimated
Sun 05:53:00 AM -6.3998 -51.4229 152° Southeast  Level Estimated
Sun 05:54:00 AM -6.5140 -51.3618 152° Southeast  Level Estimated
Sun 05:55:00 AM -6.6281 -51.3006 152° Southeast  Level Estimated
Sun 05:56:00 AM -6.7423 -51.2395 152° Southeast  Level Estimated
Sun 05:57:00 AM -6.8564 -51.1783 152° Southeast  Level Estimated
Sun 05:58:00 AM -6.9705 -51.1171 152° Southeast  Level Estimated
Sun 05:59:00 AM -7.0847 -51.0559 152° Southeast  Level Estimated
Sun 06:00:00 AM -7.1988 -50.9946 152° Southeast  Level Estimated
Sun 06:01:00 AM -7.3129 -50.9333 152° Southeast  Level Estimated
Sun 06:02:00 AM -7.4270 -50.8720 152° Southeast  Level Estimated
Sun 06:03:00 AM -7.5411 -50.8106 152° Southeast  Level Estimated
Sun 06:04:00 AM -7.6551 -50.7492 152° Southeast  Level Estimated
Sun 06:05:00 AM -7.7692 -50.6878 152° Southeast  Level Estimated
Sun 06:06:00 AM -7.8833 -50.6263 152° Southeast  Level Estimated
Sun 06:07:00 AM -7.9973 -50.5648 152° Southeast  Level Estimated
Sun 06:08:00 AM -8.1114 -50.5033 152° Southeast  Level Estimated
Sun 06:09:00 AM -8.2254 -50.4417 152° Southeast  Level Estimated
Sun 06:10:00 AM -8.3395 -50.3801 152° Southeast  Level Estimated
Sun 06:11:00 AM -8.4535 -50.3185 152° Southeast  Level Estimated
Sun 06:12:00 AM -8.5675 -50.2568 152° Southeast  Level Estimated
Sun 06:13:00 AM -8.6815 -50.1951 152° Southeast  Level Estimated
Sun 06:14:00 AM -8.7955 -50.1334 152° Southeast  Level Estimated
Sun 06:15:00 AM -8.9095 -50.0716 152° Southeast  Level Estimated
Sun 06:16:00 AM -9.0234 -50.0098 152° Southeast  Level Estimated
Sun 06:17:00 AM -9.1374 -49.9479 152° Southeast  Level Estimated
Sun 06:18:00 AM -9.2513 -49.8860 152° Southeast  Level Estimated
Sun 06:19:00 AM -9.3653 -49.8241 152° Southeast  Level Estimated
Sun 06:20:00 AM -9.4792 -49.7621 152° Southeast  Level Estimated
Sun 06:21:00 AM -9.5931 -49.7001 152° Southeast  Level Estimated
Sun 06:22:00 AM -9.7070 -49.6380 152° Southeast  Level Estimated
Sun 06:23:00 AM -9.8209 -49.5759 152° Southeast  Level Estimated
Sun 06:24:00 AM -9.9348 -49.5137 152° Southeast  Level Estimated
Sun 06:25:00 AM -10.0487 -49.4515 152° Southeast  Level Estimated
Sun 06:26:00 AM -10.1625 -49.3893 152° Southeast  Level Estimated
Sun 06:27:00 AM -10.2764 -49.3270 152° Southeast  Level Estimated
Sun 06:28:00 AM -10.3902 -49.2647 152° Southeast  Level Estimated
Sun 06:29:00 AM -10.5040 -49.2023 152° Southeast  Level Estimated
Sun 06:30:00 AM -10.6179 -49.1399 152° Southeast  Level Estimated
Sun 06:31:00 AM -10.7317 -49.0774 152° Southeast  Level Estimated
Sun 06:32:00 AM -10.8454 -49.0149 152° Southeast  Level Estimated
Sun 06:33:00 AM -10.9592 -48.9524 152° Southeast  Level Estimated
Sun 06:34:00 AM -11.0730 -48.8898 152° Southeast  Level Estimated
Sun 06:35:00 AM -11.1867 -48.8271 152° Southeast  Level Estimated
Sun 06:36:00 AM -11.3005 -48.7644 152° Southeast  Level Estimated
Sun 06:37:00 AM -11.4142 -48.7017 152° Southeast  Level Estimated
Sun 06:38:00 AM -11.5279 -48.6389 152° Southeast  Level Estimated
Sun 06:39:00 AM -11.6416 -48.5760 152° Southeast  Level Estimated
Sun 06:40:00 AM -11.7553 -48.5131 152° Southeast  Level Estimated
Sun 06:41:00 AM -11.8689 -48.4501 152° Southeast  Level Estimated
Sun 06:42:00 AM -11.9826 -48.3871 152° Southeast  Level Estimated
Sun 06:43:00 AM -12.0962 -48.3241 152° Southeast  Level Estimated
Sun 06:44:00 AM -12.2099 -48.2609 152° Southeast  Level Estimated
Sun 06:45:00 AM -12.3235 -48.1978 151° Southeast  Level Estimated
Sun 06:46:00 AM -12.4371 -48.1345 151° Southeast  Level Estimated
Sun 06:47:00 AM -12.5506 -48.0713 151° Southeast  Level Estimated
Sun 06:48:00 AM -12.6642 -48.0079 151° Southeast  Level Estimated
Sun 06:49:00 AM -12.7778 -47.9445 151° Southeast  Level Estimated
Sun 06:50:00 AM -12.8913 -47.8811 151° Southeast  Level Estimated
Sun 06:51:00 AM -13.0048 -47.8176 151° Southeast  Level Estimated
Sun 06:51:25 AM -14.6660 -48.6160 151° Southeast 509 586 35,000  Level FlightAware ADS-B
Sun 06:52:00 AM -13.1183 -47.7540 151° Southeast  Level Estimated
Sun 06:52:00 AM -14.7230 -48.5680 141° Southeast 513 590 35,000  Level FlightAware ADS-B
Sun 06:52:40 AM -14.8020 -48.4990 140° Southeast 512 589 35,000  Level FlightAware ADS-B
Sun 06:53:15 AM -14.8720 -48.4520 147° Southeast 505 581 35,000  Level FlightAware ADS-B
Sun 06:53:47 AM -14.9370 -48.4200 155° Southeast 503 579 35,000  Level FlightAware ADS-B
Sun 06:54:30 AM -15.0310 -48.3780 157° South 503 579 35,000  Level FlightAware ADS-B
Sun 06:55:09 AM -15.1070 -48.3450 157° South 504 580 35,000 86 Level FlightAware ADS-B
Sun 06:55:40 AM -15.1810 -48.3120 157° South 505 581 35,100 1,077 Climbing FlightAware ADS-B
Sun 06:56:27 AM -15.2790 -48.2680 157° South 498 573 36,400 1,425 Climbing FlightAware ADS-B
Sun 06:57:00 AM -15.3490 -48.2360 156° South 500 575 37,000 545 Climbing FlightAware ADS-B
Sun 06:57:33 AM -15.4160 -48.2050 156° South 503 579 37,000  Level FlightAware ADS-B
Sun 06:58:15 AM -15.4900 -48.1710 156° South 500 575 37,000  Level FlightAware ADS-B
Sun 06:58:48 AM -15.5810 -48.1300 157° South 498 573 37,000  Level FlightAware ADS-B
Sun 06:59:22 AM -15.6540 -48.0960 156° South 496 571 37,000  Level FlightAware ADS-B
Sun 07:00:01 AM -15.7360 -48.0590 157° South 495 570 37,000  Level FlightAware ADS-B
Sun 07:00:34 AM -15.8060 -48.0270 156° South 494 568 37,000  Level FlightAware ADS-B
Sun 07:01:10 AM -15.8800 -47.9880 153° Southeast 499 574 37,000  Level FlightAware ADS-B
Sun 07:01:38 AM -15.9350 -47.9560 151° Southeast 499 574 37,000  Level FlightAware ADS-B
Sun 07:02:20 AM -16.0210 -47.9050 150° Southeast 499 574 37,000  Level FlightAware ADS-B
Sun 07:02:48 AM -16.0680 -47.8770 150° Southeast 499 574 37,000  Level FlightAware ADS-B
Sun 07:03:26 AM -16.1520 -47.8260 150° Southeast 500 575 37,000  Level FlightAware ADS-B
Sun 07:04:02 AM -16.2240 -47.7830 150° Southeast 500 575 37,000  Level FlightAware ADS-B
Sun 07:04:36 AM -16.2930 -47.7420 150° Southeast 501 577 37,000  Level FlightAware ADS-B
Sun 07:05:10 AM -16.3630 -47.7000 150° Southeast 501 577 37,000  Level FlightAware ADS-B
Sun 07:05:48 AM -16.4390 -47.6550 150° Southeast 502 578 37,000  Level FlightAware ADS-B
Sun 07:06:20 AM -16.5010 -47.6170 150° Southeast 502 578 37,000  Level FlightAware ADS-B
Sun 07:06:56 AM -16.5760 -47.5730 151° Southeast 502 578 37,000  Level FlightAware ADS-B
Sun 07:07:28 AM -16.6400 -47.5340 150° Southeast 504 580 37,000  Level FlightAware ADS-B
Sun 07:08:03 AM -16.7100 -47.4920 150° Southeast 503 579 37,000  Level FlightAware ADS-B
Sun 07:08:32 AM -16.7710 -47.4560 151° Southeast 504 580 37,000  Level FlightAware ADS-B
Sun 07:09:11 AM -16.8470 -47.4100 150° Southeast 504 580 37,000  Level FlightAware ADS-B
Sun 07:09:51 AM -16.9120 -47.3690 149° Southeast 504 580 37,000  Level FlightAware ADS-B
Sun 07:10:28 AM -17.0020 -47.3130 149° Southeast 509 586 37,000  Level FlightAware ADS-B
Sun 07:10:56 AM -17.0480 -47.2790 145° Southeast 509 586 37,000  Level FlightAware ADS-B
Sun 07:11:42 AM -17.1310 -47.1830 132° Southeast 517 595 37,000  Level FlightAware ADS-B
Sun 07:12:22 AM -17.1920 -47.1140 133° Southeast 517 595 37,000  Level FlightAware ADS-B
Sun 07:12:59 AM -17.2430 -47.0550 132° Southeast 517 595 37,000  Level FlightAware ADS-B
Sun 07:13:31 AM -17.2930 -46.9990 133° Southeast 516 594 37,000  Level FlightAware ADS-B
Sun 07:14:10 AM -17.3670 -46.9150 133° Southeast 516 594 37,000  Level FlightAware ADS-B
Sun 07:14:44 AM -17.4190 -46.8540 132° Southeast 516 594 37,000  Level FlightAware ADS-B
Sun 07:15:24 AM -17.4820 -46.7830 133° Southeast 514 592 37,000  Level FlightAware ADS-B
Sun 07:16:00 AM -17.5450 -46.7100 132° Southeast 514 592 37,000  Level FlightAware ADS-B
Sun 07:16:33 AM -17.6000 -46.6470 132° Southeast 514 592 37,000  Level FlightAware ADS-B
Sun 07:17:08 AM -17.6560 -46.5830 133° Southeast 514 592 37,000  Level FlightAware ADS-B
Sun 07:17:45 AM -17.7120 -46.5180 132° Southeast 514 592 37,000  Level FlightAware ADS-B
Sun 07:18:17 AM -17.7530 -46.4700 132° Southeast 514 592 37,000  Level FlightAware ADS-B
Sun 07:18:53 AM -17.8160 -46.3970 132° Southeast 514 592 37,000  Level FlightAware ADS-B
Sun 07:19:29 AM -17.8810 -46.3220 132° Southeast 513 590 37,000  Level FlightAware ADS-B
Sun 07:20:14 AM -17.9350 -46.2590 132° Southeast 513 590 37,000  Level FlightAware ADS-B
Sun 07:20:51 AM -18.0070 -46.1750 132° Southeast 513 590 37,000  Level FlightAware ADS-B
Sun 07:21:28 AM -18.0710 -46.1000 132° Southeast 512 589 37,000  Level FlightAware ADS-B
Sun 07:22:11 AM -18.1350 -46.0260 132° Southeast 512 589 37,000  Level FlightAware ADS-B
Sun 07:22:43 AM -18.1850 -45.9660 131° Southeast 512 589 37,000  Level FlightAware ADS-B
Sun 07:23:18 AM -18.2450 -45.8960 132° Southeast 511 588 37,000  Level FlightAware ADS-B
Sun 07:23:53 AM -18.2960 -45.8360 132° Southeast 512 589 37,000  Level FlightAware ADS-B
Sun 07:24:29 AM -18.3470 -45.7760 132° Southeast 512 589 37,000  Level FlightAware ADS-B
Sun 07:25:03 AM -18.4100 -45.7010 132° Southeast 514 592 37,000 -480 Level FlightAware ADS-B
Sun 07:25:44 AM -18.4740 -45.6260 132° Southeast 508 585 36,400 -1,899 Descending FlightAware ADS-B
Sun 07:26:22 AM -18.5290 -45.5600 131° Southeast 518 596 34,500 -3,571 Descending FlightAware ADS-B
Sun 07:27:08 AM -18.6100 -45.4630 131° Southeast 537 618 31,400 -3,231 Descending FlightAware ADS-B
Sun 07:27:40 AM -18.6590 -45.4050 132° Southeast 523 602 30,300 -2,609 Descending FlightAware ADS-B
Sun 07:28:17 AM -18.7140 -45.3390 131° Southeast 512 589 28,400 -3,469 Descending FlightAware ADS-B
Sun 07:28:44 AM -18.7600 -45.2840 131° Southeast 504 580 26,600 -2,903 Descending FlightAware ADS-B
Sun 07:29:19 AM -18.8150 -45.2190 132° Southeast 489 563 25,400 -2,432 Descending FlightAware ADS-B
Sun 07:29:58 AM -18.8730 -45.1470 130° Southeast 480 552 23,600 -2,480 Descending FlightAware ADS-B
Sun 07:30:34 AM -18.9180 -45.0940 132° Southeast 472 543 22,300 -2,480 Descending FlightAware ADS-B
Sun 07:31:13 AM -18.9800 -45.0180 131° Southeast 457 526 20,500 -2,595 Descending FlightAware ADS-B
Sun 07:31:48 AM -19.0270 -44.9620 132° Southeast 447 514 19,100 -2,129 Descending FlightAware ADS-B
Sun 07:32:15 AM -19.0550 -44.9270 130° Southeast 440 506 18,300 -2,123 Descending FlightAware ADS-B
Sun 07:32:53 AM -19.1080 -44.8490 126° Southeast 428 493 16,800 -2,308 Descending FlightAware ADS-B
Sun 07:33:33 AM -19.1430 -44.7750 117° Southeast 419 482 15,300 -2,182 Descending FlightAware ADS-B
Sun 07:33:59 AM -19.1650 -44.7280 116° Southeast 411 473 14,400 -1,935 Descending FlightAware ADS-B
Sun 07:34:35 AM -19.1930 -44.6670 116° Southeast 398 458 13,300 -2,027 Descending FlightAware ADS-B
Sun 07:35:13 AM -19.2240 -44.6000 116° Southeast 384 442 11,900 -1,808 Descending FlightAware ADS-B
Sun 07:35:48 AM -19.2520 -44.5400 116° Southeast 359 413 11,100 -1,254 Descending FlightAware ADS-B
Sun 07:36:20 AM -19.2720 -44.4950 115° Southeast 328 377 10,500 -1,161 Descending FlightAware ADS-B
Sun 07:36:50 AM -19.2910 -44.4520 115° Southeast 307 353 9,900 -1,116 Descending FlightAware ADS-B
Sun 07:37:03 AM -19.3000 -44.4330 117° Southeast 296 341 9,700 -750 Descending FlightAware ADS-B
Sun 07:37:30 AM -19.3120 -44.4060 115° Southeast 283 326 9,400 -1,224 Descending FlightAware ADS-B
Sun 07:37:52 AM -19.3250 -44.3760 115° Southeast 279 321 8,700 -1,902 Descending FlightAware ADS-B
Sun 07:38:11 AM -19.3360 -44.3520 116° Southeast 278 320 8,100 -2,000 Descending FlightAware ADS-B
Sun 07:38:31 AM -19.3470 -44.3270 115° Southeast 280 322 7,400 -1,667 Descending FlightAware ADS-B
Sun 07:38:47 AM -19.3560 -44.3080 117° Southeast 273 314 7,100 -1,116 Descending FlightAware ADS-B
Sun 07:39:14 AM -19.3720 -44.2720 115° Southeast 252 290 6,600 -837 Descending FlightAware ADS-B
Sun 07:39:30 AM -19.3790 -44.2560 115° Southeast 243 280 6,500 -621 Descending FlightAware ADS-B
Sun 07:39:43 AM -19.3830 -44.2450 111° Southeast 242 278 6,300 -1,231 Descending FlightAware ADS-B
Sun 07:40:09 AM -19.3970 -44.2140 116° Southeast 241 277 5,700 -1,091 Descending FlightAware ADS-B
Sun 07:40:38 AM -19.4120 -44.1810 116° Southeast 230 265 5,300 -735 Descending FlightAware ADS-B
Sun 07:40:58 AM -19.4210 -44.1610 116° Southeast 215 247 5,100 -833 Descending FlightAware ADS-B
Sun 07:41:14 AM -19.4280 -44.1470 118° Southeast 211 243 4,800 -545 Descending FlightAware ADS-B
Sun 07:41:31 AM -19.4370 -44.1360 131° Southeast 210 242 4,800  Level FlightAware ADS-B
Sun 07:41:49 AM -19.4510 -44.1220 137° Southeast 212 244 4,800  Level FlightAware ADS-B
Sun 07:42:10 AM -19.4610 -44.1110 134° Southeast 212 244 4,800  Level FlightAware ADS-B
Sun 07:42:35 AM -19.4830 -44.0910 139° Southeast 206 237 4,800  Level FlightAware ADS-B
Sun 07:42:55 AM -19.4970 -44.0770 137° Southeast 190 219 4,800 -133 Level FlightAware ADS-B
Sun 07:43:20 AM -19.5100 -44.0640 137° Southeast 186 214 4,700 -533 Descending FlightAware ADS-B
Sun 07:43:40 AM -19.5260 -44.0500 140° Southeast 174 200 4,400 -706 Descending FlightAware ADS-B
Sun 07:43:54 AM -19.5310 -44.0440 131° Southeast 170 196 4,300 -409 Descending FlightAware ADS-B
Sun 07:44:24 AM -19.5440 -44.0310 137° Southeast 152 175 4,100 -667 Descending FlightAware ADS-B
Sun 07:44:48 AM -19.5630 -44.0130 138° Southeast 147 169 3,700 -933 Descending FlightAware ADS-B
Sun 07:45:09 AM -19.5730 -44.0030 137° Southeast 148 170 3,400 -735 Descending FlightAware ADS-B
Sun 07:45:37 AM -19.5860 -43.9900 137° Southeast 147 169 3,100 -766 Descending FlightAware ADS-B
Sun 07:45:56 AM -19.5960 -43.9800 137° Southeast 145 167 2,800 -732 Descending FlightAware ADS-B
Sun 07:46:18 AM -19.6030 -43.9730 137° Southeast 145 167 2,600 -545 Descending FlightAware ADS-B
Sun 07:46:38 AM -19.6150 -43.9610 137° Southeast 110 127 -7,800 Descending FlightAware ADS-B

Login

Don't have an account? Register now (free) for customized features, flight alerts, and more!